MSC Vidhi — D5GE2 — position and weather

sailwx.info

Track history (hours):
 
Tides and Currents Weather Stations Pressure Air Temp Water Temp Dewpoint Dewpoint Depression Visibility Wind Speed Wind Dir Waves Ship Positions

MSC Vidhi

Last reported at 2017-Nov-19 12:41 UTC. Time now 2017-Nov-22 16:41 UTC.
Position N 38°45' W 075°00'.

Length 277 m; draft 9.4 m.

Type: Ship (hazmat cat A). MMSI: 636016433.

Date/timePositionNaut miles runAvg speedWind from/ knotsBaromVisibWave heightAir tempDewpointWater temp
2017-Nov-19 12:41N 38°45' W 075°00'2 9.7
2017-Nov-19 12:30N 38°46' W 075°02'4 9.2
2017-Nov-19 12:00N 38°50' W 075°04'713.6
2017-Nov-19 11:30N 38°57' W 075°07'816.9
2017-Nov-19 11:00N 39°05' W 075°11'917.3
2017-Nov-19 10:30N 39°12' W 075°17'917.7
2017-Nov-19 10:00N 39°19' W 075°24'816.7
2017-Nov-19 09:30N 39°25' W 075°31'714.7
2017-Nov-19 09:00N 39°32' W 075°33'713.3
2017-Nov-19 08:31N 39°39' W 075°33'713.9
2017-Nov-19 08:00N 39°45' W 075°29'510.9
2017-Nov-19 07:30N 39°49' W 075°24'5 9.1
2017-Nov-19 07:00N 39°51' W 075°18'5 9.3
2017-Nov-19 06:31N 39°52' W 075°13'4 7.6
2017-Nov-19 06:00N 39°54' W 075°08'0 0.9
2017-Nov-19 05:31N 39°54' W 075°08'0 0.0
2017-Nov-19 05:00N 39°54' W 075°08'0 0.0
2017-Nov-19 04:30N 39°54' W 075°08'0 0.0
2017-Nov-19 04:00N 39°54' W 075°08'0 0.0
2017-Nov-19 03:30N 39°54' W 075°08'0 0.0
2017-Nov-19 03:00N 39°54' W 075°08'0 0.0
2017-Nov-19 02:30N 39°54' W 075°08'0 0.0
2017-Nov-19 02:00N 39°54' W 075°08'0 0.0
2017-Nov-19 01:31N 39°54' W 075°08'0 0.0
2017-Nov-19 01:00N 39°54' W 075°08'0 0.0
2017-Nov-19 00:30N 39°54' W 075°08'0 0.0
2017-Nov-19 00:00N 39°54' W 075°08'0 0.0
2017-Nov-18 23:30N 39°54' W 075°08'0 0.0
2017-Nov-18 23:00N 39°54' W 075°08'0 0.0
2017-Nov-18 22:30N 39°54' W 075°08'0 0.0
2017-Nov-18 22:00N 39°54' W 075°08'0 0.0
2017-Nov-18 21:30N 39°54' W 075°08'0 0.0
2017-Nov-18 21:00N 39°54' W 075°08'0 0.0
2017-Nov-18 20:30N 39°54' W 075°08'0 0.0
2017-Nov-18 20:00N 39°54' W 075°08'0 0.0
2017-Nov-18 19:30N 39°54' W 075°08'0 0.0
2017-Nov-18 19:00N 39°54' W 075°08'0 0.0
2017-Nov-18 18:31N 39°54' W 075°08'0 0.0
2017-Nov-18 18:00N 39°54' W 075°08'0 0.0
2017-Nov-18 17:30N 39°54' W 075°08'0 0.0
2017-Nov-18 17:00N 39°54' W 075°08'0 0.1
2017-Nov-18 16:30N 39°54' W 075°08'1 2.8
2017-Nov-18 16:00N 39°53' W 075°09'4 8.7
2017-Nov-18 15:30N 39°51' W 075°14'5 9.0
2017-Nov-18 15:00N 39°51' W 075°20'5 9.2
2017-Nov-18 14:30N 39°48' W 075°25'5 9.8
2017-Nov-18 14:01N 39°45' W 075°30'510.8
2017-Nov-18 13:30N 39°40' W 075°32'510.0
2017-Nov-18 13:00N 39°35' W 075°33'612.1
2017-Nov-18 12:31N 39°29' W 075°34'714.5
2017-Nov-18 12:00N 39°23' W 075°28'714.8
2017-Nov-18 11:30N 39°17' W 075°22'714.4
2017-Nov-18 11:00N 39°12' W 075°17'713.3
2017-Nov-18 10:31N 39°06' W 075°12'612.8
2017-Nov-18 10:00N 39°00' W 075°08'613.0
2017-Nov-18 09:30N 38°54' W 075°05'4 8.6
2017-Nov-18 09:00N 38°50' W 075°04'4 7.3
2017-Nov-18 08:30N 38°47' W 075°02'3 5.3
2017-Nov-18 08:00N 38°47' W 074°59'4 7.2
2017-Nov-18 07:30N 38°48' W 074°54'4 7.2
2017-Nov-18 07:00N 38°48' W 074°50'4 7.4
2017-Nov-18 06:30N 38°48' W 074°45'4 7.1
2017-Nov-18 06:00N 38°48' W 074°40'1 1.7
2017-Nov-18 05:30N 38°48' W 074°39'3 5.3
2017-Nov-18 05:00N 38°48' W 074°36'4 6.8
2017-Nov-18 04:28N 38°50' W 074°31'4 8.1
2017-Nov-18 03:56N 38°52' W 074°27'11 7.9
2017-Nov-18 02:36N 38°58' W 074°15'1 7.7
2017-Nov-18 02:29N 38°58' W 074°14'32 7.0
2017-Nov-17 21:56N 39°24' W 073°51'4 8.4
2017-Nov-17 21:30N 39°28' W 073°51'4 8.5
2017-Nov-17 20:59N 39°32' W 073°51'4 8.5
2017-Nov-17 20:30N 39°37' W 073°51'4 8.6
2017-Nov-17 20:00N 39°41' W 073°51'4 8.5
2017-Nov-17 19:30N 39°45' W 073°51'4 8.7
2017-Nov-17 19:00N 39°49' W 073°51'4 8.7
2017-Nov-17 18:30N 39°54' W 073°50'4 8.7
2017-Nov-17 18:00N 39°58' W 073°50'19 8.7
2017-Nov-17 15:49N 40°17' W 073°49'3 8.6
2017-Nov-17 15:30N 40°20' W 073°49'4 8.3
2017-Nov-17 15:00N 40°24' W 073°48'4 8.8
2017-Nov-17 14:30N 40°28' W 073°51'610.0
2017-Nov-17 13:56N 40°30' W 073°58'715.8
2017-Nov-17 13:30N 40°36' W 074°03'4 8.5
2017-Nov-17 13:00N 40°39' W 074°07'2 3.3
2017-Nov-17 12:31N 40°40' W 074°09'2 2.8
2017-Nov-17 11:56N 40°41' W 074°09'0 0.0
2017-Nov-17 11:29N 40°41' W 074°09'0 0.0
2017-Nov-17 11:00N 40°41' W 074°09'0 0.0
2017-Nov-17 10:30N 40°41' W 074°09'0 0.0
2017-Nov-17 10:00N 40°41' W 074°09'0 0.0
2017-Nov-17 09:30N 40°41' W 074°09'0 0.0
2017-Nov-17 09:00N 40°41' W 074°09'0 0.0
2017-Nov-17 08:30N 40°41' W 074°09'0 0.0
2017-Nov-17 08:00N 40°41' W 074°09'0 0.0
2017-Nov-17 07:30N 40°41' W 074°09'0 0.0
2017-Nov-17 07:00N 40°41' W 074°09'0 0.0
2017-Nov-17 06:30N 40°41' W 074°09'0 0.0
2017-Nov-17 06:00N 40°41' W 074°09'0 0.0
2017-Nov-17 05:30N 40°41' W 074°09'0 0.0
2017-Nov-17 05:00N 40°41' W 074°09'0 0.0
2017-Nov-17 04:30N 40°41' W 074°09'0 0.0
2017-Nov-17 04:00N 40°41' W 074°09'0 0.0
2017-Nov-17 03:30N 40°41' W 074°09'0 0.0
2017-Nov-17 03:00N 40°41' W 074°09'0 0.0
2017-Nov-17 02:30N 40°41' W 074°09'0 0.0
2017-Nov-17 02:00N 40°41' W 074°09'0 0.0
2017-Nov-17 01:30N 40°41' W 074°09'0 0.0
2017-Nov-17 01:00N 40°41' W 074°09'0 0.0
2017-Nov-17 00:30N 40°41' W 074°09'0 0.0
2017-Nov-17 00:00N 40°41' W 074°09'0 0.0
2017-Nov-16 23:30N 40°41' W 074°09'0 0.0
2017-Nov-16 23:00N 40°41' W 074°09'0 0.0
2017-Nov-16 22:30N 40°41' W 074°09'0 0.0
2017-Nov-16 22:00N 40°41' W 074°09'0 0.0
2017-Nov-16 21:30N 40°41' W 074°09'0 0.0
2017-Nov-16 21:00N 40°41' W 074°09'0 0.0
2017-Nov-16 20:30N 40°41' W 074°09'0 0.0
2017-Nov-16 20:00N 40°41' W 074°09'0 0.0
2017-Nov-16 19:30N 40°41' W 074°09'0 0.0
2017-Nov-16 19:00N 40°41' W 074°09'0 0.0
2017-Nov-16 18:30N 40°41' W 074°09'0 0.0
2017-Nov-16 18:00N 40°41' W 074°09'0 0.0
2017-Nov-16 17:30N 40°41' W 074°09'0 0.0
2017-Nov-16 17:00N 40°41' W 074°09'0 0.0
2017-Nov-16 16:30N 40°41' W 074°09'0 0.0
2017-Nov-16 16:00N 40°41' W 074°09'0 0.0
2017-Nov-16 15:30N 40°41' W 074°09'0 0.0
2017-Nov-16 15:00N 40°41' W 074°09'0 0.0
2017-Nov-16 14:30N 40°41' W 074°09'0 0.0
2017-Nov-16 14:00N 40°41' W 074°09'0 0.0
2017-Nov-16 13:30N 40°41' W 074°09'0 0.0
2017-Nov-16 13:00N 40°41' W 074°09'0 0.0
2017-Nov-16 12:30N 40°41' W 074°09'0 0.0
2017-Nov-16 12:00N 40°41' W 074°09'0 0.0
2017-Nov-16 11:30N 40°41' W 074°09'0 0.0
2017-Nov-16 11:00N 40°41' W 074°09'1 2.5
2017-Nov-16 10:30N 40°40' W 074°08'2 3.3
2017-Nov-16 10:00N 40°39' W 074°07'3 6.1
2017-Nov-16 09:30N 40°38' W 074°03'5 9.1
2017-Nov-16 09:01N 40°34' W 074°02'713.1
2017-Nov-16 08:30N 40°29' W 073°55'5 9.1
2017-Nov-16 08:00N 40°28' W 073°50'3 6.5
2017-Nov-16 07:29N 40°26' W 073°45'3 6.8
2017-Nov-16 07:00N 40°27' W 073°41'4 8.6
2017-Nov-16 06:30N 40°28' W 073°36'4 8.2
2017-Nov-16 06:00N 40°28' W 073°30'189 7.7
2017-Nov-15 05:25N 42°10' W 069°58'1216.2
2017-Nov-15 04:40N 42°17' W 070°11'419.0
2017-Nov-15 04:28N 42°18' W 070°16'918.4
2017-Nov-15 04:00N 42°19' W 070°27'918.4
2017-Nov-15 03:30N 42°20' W 070°39'917.1
2017-Nov-15 03:00N 42°23' W 070°50'611.8
2017-Nov-15 02:30N 42°20' W 070°57'3 6.2
2017-Nov-15 02:00N 42°21' W 071°01'0 0.5
2017-Nov-15 01:30N 42°21' W 071°01'0 0.0
2017-Nov-15 00:57N 42°21' W 071°01'0 0.0
2017-Nov-15 00:30N 42°21' W 071°01'0 0.0
2017-Nov-15 00:00N 42°21' W 071°01'0 0.0
2017-Nov-14 23:30N 42°21' W 071°01'0 0.0
2017-Nov-14 23:00N 42°21' W 071°01'0 0.0
2017-Nov-14 22:30N 42°21' W 071°01'0 0.0
2017-Nov-14 22:00N 42°21' W 071°01'0 0.0
2017-Nov-14 21:30N 42°21' W 071°01'0 0.0
2017-Nov-14 21:00N 42°21' W 071°01'0 0.0
2017-Nov-14 20:27N 42°21' W 071°01'0 0.0
2017-Nov-14 20:00N 42°21' W 071°01'0 0.0
2017-Nov-14 19:30N 42°21' W 071°01'0 0.0
2017-Nov-14 18:57N 42°21' W 071°01'0 0.0
2017-Nov-14 18:30N 42°21' W 071°01'0 0.0
2017-Nov-14 18:00N 42°21' W 071°01'0 0.0
2017-Nov-14 17:30N 42°21' W 071°01'0 0.0
2017-Nov-14 17:00N 42°21' W 071°01'0 0.0
2017-Nov-14 16:30N 42°21' W 071°01'0 0.0
2017-Nov-14 16:00N 42°21' W 071°01'0 0.0
2017-Nov-14 15:30N 42°21' W 071°01'0 0.0
2017-Nov-14 14:54N 42°21' W 071°01'0 0.0
2017-Nov-14 14:24N 42°21' W 071°01'0 0.0
2017-Nov-14 14:00N 42°21' W 071°01'0 0.0
2017-Nov-14 13:30N 42°21' W 071°01'0 0.0
2017-Nov-14 12:51N 42°21' W 071°01'0 0.0
2017-Nov-14 12:30N 42°21' W 071°01'1 1.4
2017-Nov-14 12:00N 42°20' W 071°00'3 6.5
2017-Nov-14 11:30N 42°21' W 070°56'4 8.6
2017-Nov-14 11:00N 42°24' W 070°51'4 8.8
2017-Nov-14 10:30N 42°23' W 070°45'5 9.6
2017-Nov-14 10:00N 42°22' W 070°39'5 9.9
2017-Nov-14 09:30N 42°22' W 070°33'510.2
2017-Nov-14 09:00N 42°21' W 070°26'510.2
2017-Nov-14 08:30N 42°21' W 070°19'510.2
2017-Nov-14 08:00N 42°20' W 070°12'510.2
2017-Nov-14 07:30N 42°19' W 070°05'510.2
2017-Nov-14 07:00N 42°17' W 069°59'  
Track history (hours):
 
Tides and Currents Weather Stations Pressure Air Temp Water Temp Dewpoint Dewpoint Depression Visibility Wind Speed Wind Dir Waves Ship Positions

MSC Vidhi

Last reported at 2017-Nov-19 12:41 UTC. Time now 2017-Nov-22 16:41 UTC.
Position N 38°45' W 075°00'.

Length 277 m; draft 9.4 m.

Type: Ship (hazmat cat A). MMSI: 636016433.

Date/timePositionNaut miles runAvg speedWind from/ knotsBaromVisibWave heightAir tempDewpointWater temp
2017-Nov-19 12:41N 38°45' W 075°00'2 9.7
2017-Nov-19 12:30N 38°46' W 075°02'4 9.2
2017-Nov-19 12:00N 38°50' W 075°04'713.6
2017-Nov-19 11:30N 38°57' W 075°07'816.9
2017-Nov-19 11:00N 39°05' W 075°11'917.3
2017-Nov-19 10:30N 39°12' W 075°17'917.7
2017-Nov-19 10:00N 39°19' W 075°24'816.7
2017-Nov-19 09:30N 39°25' W 075°31'714.7
2017-Nov-19 09:00N 39°32' W 075°33'713.3
2017-Nov-19 08:31N 39°39' W 075°33'713.9
2017-Nov-19 08:00N 39°45' W 075°29'510.9
2017-Nov-19 07:30N 39°49' W 075°24'5 9.1
2017-Nov-19 07:00N 39°51' W 075°18'5 9.3
2017-Nov-19 06:31N 39°52' W 075°13'4 7.6
2017-Nov-19 06:00N 39°54' W 075°08'0 0.9
2017-Nov-19 05:31N 39°54' W 075°08'0 0.0
2017-Nov-19 05:00N 39°54' W 075°08'0 0.0
2017-Nov-19 04:30N 39°54' W 075°08'0 0.0
2017-Nov-19 04:00N 39°54' W 075°08'0 0.0
2017-Nov-19 03:30N 39°54' W 075°08'0 0.0
2017-Nov-19 03:00N 39°54' W 075°08'0 0.0
2017-Nov-19 02:30N 39°54' W 075°08'0 0.0
2017-Nov-19 02:00N 39°54' W 075°08'0 0.0
2017-Nov-19 01:31N 39°54' W 075°08'0 0.0
2017-Nov-19 01:00N 39°54' W 075°08'0 0.0
2017-Nov-19 00:30N 39°54' W 075°08'0 0.0
2017-Nov-19 00:00N 39°54' W 075°08'0 0.0
2017-Nov-18 23:30N 39°54' W 075°08'0 0.0
2017-Nov-18 23:00N 39°54' W 075°08'0 0.0
2017-Nov-18 22:30N 39°54' W 075°08'0 0.0
2017-Nov-18 22:00N 39°54' W 075°08'0 0.0
2017-Nov-18 21:30N 39°54' W 075°08'0 0.0
2017-Nov-18 21:00N 39°54' W 075°08'0 0.0
2017-Nov-18 20:30N 39°54' W 075°08'0 0.0
2017-Nov-18 20:00N 39°54' W 075°08'0 0.0
2017-Nov-18 19:30N 39°54' W 075°08'0 0.0
2017-Nov-18 19:00N 39°54' W 075°08'0 0.0
2017-Nov-18 18:31N 39°54' W 075°08'0 0.0
2017-Nov-18 18:00N 39°54' W 075°08'0 0.0
2017-Nov-18 17:30N 39°54' W 075°08'0 0.0
2017-Nov-18 17:00N 39°54' W 075°08'0 0.1
2017-Nov-18 16:30N 39°54' W 075°08'1 2.8
2017-Nov-18 16:00N 39°53' W 075°09'4 8.7
2017-Nov-18 15:30N 39°51' W 075°14'5 9.0
2017-Nov-18 15:00N 39°51' W 075°20'5 9.2
2017-Nov-18 14:30N 39°48' W 075°25'5 9.8
2017-Nov-18 14:01N 39°45' W 075°30'510.8
2017-Nov-18 13:30N 39°40' W 075°32'510.0
2017-Nov-18 13:00N 39°35' W 075°33'612.1
2017-Nov-18 12:31N 39°29' W 075°34'714.5
2017-Nov-18 12:00N 39°23' W 075°28'714.8
2017-Nov-18 11:30N 39°17' W 075°22'714.4
2017-Nov-18 11:00N 39°12' W 075°17'713.3
2017-Nov-18 10:31N 39°06' W 075°12'612.8
2017-Nov-18 10:00N 39°00' W 075°08'613.0
2017-Nov-18 09:30N 38°54' W 075°05'4 8.6
2017-Nov-18 09:00N 38°50' W 075°04'4 7.3
2017-Nov-18 08:30N 38°47' W 075°02'3 5.3
2017-Nov-18 08:00N 38°47' W 074°59'4 7.2
2017-Nov-18 07:30N 38°48' W 074°54'4 7.2
2017-Nov-18 07:00N 38°48' W 074°50'4 7.4
2017-Nov-18 06:30N 38°48' W 074°45'4 7.1
2017-Nov-18 06:00N 38°48' W 074°40'1 1.7
2017-Nov-18 05:30N 38°48' W 074°39'3 5.3
2017-Nov-18 05:00N 38°48' W 074°36'4 6.8
2017-Nov-18 04:28N 38°50' W 074°31'4 8.1
2017-Nov-18 03:56N 38°52' W 074°27'11 7.9
2017-Nov-18 02:36N 38°58' W 074°15'1 7.7
2017-Nov-18 02:29N 38°58' W 074°14'32 7.0
2017-Nov-17 21:56N 39°24' W 073°51'4 8.4
2017-Nov-17 21:30N 39°28' W 073°51'4 8.5
2017-Nov-17 20:59N 39°32' W 073°51'4 8.5
2017-Nov-17 20:30N 39°37' W 073°51'4 8.6
2017-Nov-17 20:00N 39°41' W 073°51'4 8.5
2017-Nov-17 19:30N 39°45' W 073°51'4 8.7
2017-Nov-17 19:00N 39°49' W 073°51'4 8.7
2017-Nov-17 18:30N 39°54' W 073°50'4 8.7
2017-Nov-17 18:00N 39°58' W 073°50'19 8.7
2017-Nov-17 15:49N 40°17' W 073°49'3 8.6
2017-Nov-17 15:30N 40°20' W 073°49'4 8.3
2017-Nov-17 15:00N 40°24' W 073°48'4 8.8
2017-Nov-17 14:30N 40°28' W 073°51'610.0
2017-Nov-17 13:56N 40°30' W 073°58'715.8
2017-Nov-17 13:30N 40°36' W 074°03'4 8.5
2017-Nov-17 13:00N 40°39' W 074°07'2 3.3
2017-Nov-17 12:31N 40°40' W 074°09'2 2.8
2017-Nov-17 11:56N 40°41' W 074°09'0 0.0
2017-Nov-17 11:29N 40°41' W 074°09'0 0.0
2017-Nov-17 11:00N 40°41' W 074°09'0 0.0
2017-Nov-17 10:30N 40°41' W 074°09'0 0.0
2017-Nov-17 10:00N 40°41' W 074°09'0 0.0
2017-Nov-17 09:30N 40°41' W 074°09'0 0.0
2017-Nov-17 09:00N 40°41' W 074°09'0 0.0
2017-Nov-17 08:30N 40°41' W 074°09'0 0.0
2017-Nov-17 08:00N 40°41' W 074°09'0 0.0
2017-Nov-17 07:30N 40°41' W 074°09'0 0.0
2017-Nov-17 07:00N 40°41' W 074°09'0 0.0
2017-Nov-17 06:30N 40°41' W 074°09'0 0.0
2017-Nov-17 06:00N 40°41' W 074°09'0 0.0
2017-Nov-17 05:30N 40°41' W 074°09'0 0.0
2017-Nov-17 05:00N 40°41' W 074°09'0 0.0
2017-Nov-17 04:30N 40°41' W 074°09'0 0.0
2017-Nov-17 04:00N 40°41' W 074°09'0 0.0
2017-Nov-17 03:30N 40°41' W 074°09'0 0.0
2017-Nov-17 03:00N 40°41' W 074°09'0 0.0
2017-Nov-17 02:30N 40°41' W 074°09'0 0.0
2017-Nov-17 02:00N 40°41' W 074°09'0 0.0
2017-Nov-17 01:30N 40°41' W 074°09'0 0.0
2017-Nov-17 01:00N 40°41' W 074°09'0 0.0
2017-Nov-17 00:30N 40°41' W 074°09'0 0.0
2017-Nov-17 00:00N 40°41' W 074°09'0 0.0
2017-Nov-16 23:30N 40°41' W 074°09'0 0.0
2017-Nov-16 23:00N 40°41' W 074°09'0 0.0
2017-Nov-16 22:30N 40°41' W 074°09'0 0.0
2017-Nov-16 22:00N 40°41' W 074°09'0 0.0
2017-Nov-16 21:30N 40°41' W 074°09'0 0.0
2017-Nov-16 21:00N 40°41' W 074°09'0 0.0
2017-Nov-16 20:30N 40°41' W 074°09'0 0.0
2017-Nov-16 20:00N 40°41' W 074°09'0 0.0
2017-Nov-16 19:30N 40°41' W 074°09'0 0.0
2017-Nov-16 19:00N 40°41' W 074°09'0 0.0
2017-Nov-16 18:30N 40°41' W 074°09'0 0.0
2017-Nov-16 18:00N 40°41' W 074°09'0 0.0
2017-Nov-16 17:30N 40°41' W 074°09'0 0.0
2017-Nov-16 17:00N 40°41' W 074°09'0 0.0
2017-Nov-16 16:30N 40°41' W 074°09'0 0.0
2017-Nov-16 16:00N 40°41' W 074°09'0 0.0
2017-Nov-16 15:30N 40°41' W 074°09'0 0.0
2017-Nov-16 15:00N 40°41' W 074°09'0 0.0
2017-Nov-16 14:30N 40°41' W 074°09'0 0.0
2017-Nov-16 14:00N 40°41' W 074°09'0 0.0
2017-Nov-16 13:30N 40°41' W 074°09'0 0.0
2017-Nov-16 13:00N 40°41' W 074°09'0 0.0
2017-Nov-16 12:30N 40°41' W 074°09'0 0.0
2017-Nov-16 12:00N 40°41' W 074°09'0 0.0
2017-Nov-16 11:30N 40°41' W 074°09'0 0.0
2017-Nov-16 11:00N 40°41' W 074°09'1 2.5
2017-Nov-16 10:30N 40°40' W 074°08'2 3.3
2017-Nov-16 10:00N 40°39' W 074°07'3 6.1
2017-Nov-16 09:30N 40°38' W 074°03'5 9.1
2017-Nov-16 09:01N 40°34' W 074°02'713.1
2017-Nov-16 08:30N 40°29' W 073°55'5 9.1
2017-Nov-16 08:00N 40°28' W 073°50'3 6.5
2017-Nov-16 07:29N 40°26' W 073°45'3 6.8
2017-Nov-16 07:00N 40°27' W 073°41'4 8.6
2017-Nov-16 06:30N 40°28' W 073°36'4 8.2
2017-Nov-16 06:00N 40°28' W 073°30'189 7.7
2017-Nov-15 05:25N 42°10' W 069°58'1216.2
2017-Nov-15 04:40N 42°17' W 070°11'419.0
2017-Nov-15 04:28N 42°18' W 070°16'918.4
2017-Nov-15 04:00N 42°19' W 070°27'918.4
2017-Nov-15 03:30N 42°20' W 070°39'917.1
2017-Nov-15 03:00N 42°23' W 070°50'611.8
2017-Nov-15 02:30N 42°20' W 070°57'3 6.2
2017-Nov-15 02:00N 42°21' W 071°01'0 0.5
2017-Nov-15 01:30N 42°21' W 071°01'0 0.0
2017-Nov-15 00:57N 42°21' W 071°01'0 0.0
2017-Nov-15 00:30N 42°21' W 071°01'0 0.0
2017-Nov-15 00:00N 42°21' W 071°01'0 0.0
2017-Nov-14 23:30N 42°21' W 071°01'0 0.0
2017-Nov-14 23:00N 42°21' W 071°01'0 0.0
2017-Nov-14 22:30N 42°21' W 071°01'0 0.0
2017-Nov-14 22:00N 42°21' W 071°01'0 0.0
2017-Nov-14 21:30N 42°21' W 071°01'0 0.0
2017-Nov-14 21:00N 42°21' W 071°01'0 0.0
2017-Nov-14 20:27N 42°21' W 071°01'0 0.0
2017-Nov-14 20:00N 42°21' W 071°01'0 0.0
2017-Nov-14 19:30N 42°21' W 071°01'0 0.0
2017-Nov-14 18:57N 42°21' W 071°01'0 0.0
2017-Nov-14 18:30N 42°21' W 071°01'0 0.0
2017-Nov-14 18:00N 42°21' W 071°01'0 0.0
2017-Nov-14 17:30N 42°21' W 071°01'0 0.0
2017-Nov-14 17:00N 42°21' W 071°01'0 0.0
2017-Nov-14 16:30N 42°21' W 071°01'0 0.0
2017-Nov-14 16:00N 42°21' W 071°01'0 0.0
2017-Nov-14 15:30N 42°21' W 071°01'0 0.0
2017-Nov-14 14:54N 42°21' W 071°01'0 0.0
2017-Nov-14 14:24N 42°21' W 071°01'0 0.0
2017-Nov-14 14:00N 42°21' W 071°01'0 0.0
2017-Nov-14 13:30N 42°21' W 071°01'0 0.0
2017-Nov-14 12:51N 42°21' W 071°01'0 0.0
2017-Nov-14 12:30N 42°21' W 071°01'1 1.4
2017-Nov-14 12:00N 42°20' W 071°00'3 6.5
2017-Nov-14 11:30N 42°21' W 070°56'4 8.6
2017-Nov-14 11:00N 42°24' W 070°51'4 8.8
2017-Nov-14 10:30N 42°23' W 070°45'5 9.6
2017-Nov-14 10:00N 42°22' W 070°39'5 9.9
2017-Nov-14 09:30N 42°22' W 070°33'510.2
2017-Nov-14 09:00N 42°21' W 070°26'510.2
2017-Nov-14 08:30N 42°21' W 070°19'510.2
2017-Nov-14 08:00N 42°20' W 070°12'510.2
2017-Nov-14 07:30N 42°19' W 070°05'510.2
2017-Nov-14 07:00N 42°17' W 069°59'  

Dump ship's entire track history